Pagrindinis puslapis
METAR-TAF:

METAR-TAF

Oro uostai :

Kvala Lumpūro tarptautinis oro uostas

Kvala Lumpūras, Malaizija

platuma: 02-44N, ilguma: 101-42E, Aukštis: 21 m

Dabartinis oras

Ataskaita buvo paskelbta 31 minutes, ne 12:30 UTC
Vėjas 4 kt iš Vakarų/Šiaurės Vakarų, svyruoja nuo Vakarų/Pietvakarių ir Šiaurės/Šiaurės Vakarų
Temperatūra 28°C
Drėgmė 62%
Slėgis 1007 hPa
Matomumas 10 km arba daugiau
Mažai debesys ne aukštis 3000 ft

METAR: WMKK 251230Z 29004KT 250V330 9999 FEW030 28/20 Q1007 NOSIG

Laikas: 21:01 (13:01 UTC)

Prognozė

Ataskaita buvo paskelbta 2 valandos ir 1 minutes, ne 11:00 UTC
Prognozė galioja nuo 25 metu 12 UTC su 26 metu 18 UTC
Vėjas 3 kt nuo kintamojo kryptimis
Matomumas 10 km arba daugiau
Mažai debesys ne aukštis 3000 ft

TAF: WMKK 251100Z 2512/2618 VRB03KT 9999 FEW030

Orai ataskaitas ir orų prognozės (METAR, TAF).

turimą stotys yra geltonos ir raudonos taškus žemėlapyje.

Perkelti pele per norėdami pamatyti stoties vardą.

Tada spustelėkite, norėdami matyti oro stebėjimo ir prognozės.

Norėdami pakeisti žemėlapį: spustelėkite ant žalios mygtukų su juodo kryžiaus žemyn,; žalią mygtuką su brūkšneliu, jei norite nutolinti; arba žalių rodyklių gretimoms žemėlapius.


METAR-TAF: